sensor_id;sensor_type;location;lat;lon;timestamp;P1;durP1;ratioP1;P2;durP2;ratioP2
75216;SDS011;63800;51.972;5.682;2023-01-23T00:01:40;16.80;;;9.45;;
75216;SDS011;63800;51.972;5.682;2023-01-23T00:04:06;18.30;;;9.02;;
75216;SDS011;63800;51.972;5.682;2023-01-23T00:06:32;15.75;;;8.43;;
75216;SDS011;63800;51.972;5.682;2023-01-23T00:08:57;17.35;;;9.82;;
75216;SDS011;63800;51.972;5.682;2023-01-23T00:11:24;18.40;;;9.70;;
75216;SDS011;63800;51.972;5.682;2023-01-23T00:13:51;15.60;;;8.73;;
75216;SDS011;63800;51.972;5.682;2023-01-23T00:16:18;15.90;;;9.25;;
75216;SDS011;63800;51.972;5.682;2023-01-23T00:18:45;17.52;;;9.27;;
75216;SDS011;63800;51.972;5.682;2023-01-23T00:21:12;18.52;;;9.48;;
75216;SDS011;63800;51.972;5.682;2023-01-23T00:23:46;18.65;;;9.68;;
75216;SDS011;63800;51.972;5.682;2023-01-23T00:26:19;18.10;;;8.35;;
75216;SDS011;63800;51.972;5.682;2023-01-23T00:28:46;15.13;;;8.90;;
75216;SDS011;63800;51.972;5.682;2023-01-23T00:31:13;16.77;;;8.77;;
75216;SDS011;63800;51.972;5.682;2023-01-23T00:33:52;14.35;;;8.07;;
75216;SDS011;63800;51.972;5.682;2023-01-23T00:36:21;18.88;;;9.27;;
75216;SDS011;63800;51.972;5.682;2023-01-23T00:38:47;14.93;;;8.30;;
75216;SDS011;63800;51.972;5.682;2023-01-23T00:41:12;13.82;;;8.90;;
75216;SDS011;63800;51.972;5.682;2023-01-23T00:43:38;17.20;;;8.55;;
75216;SDS011;63800;51.972;5.682;2023-01-23T00:46:03;18.30;;;9.10;;
75216;SDS011;63800;51.972;5.682;2023-01-23T00:48:29;18.13;;;9.10;;
75216;SDS011;63800;51.972;5.682;2023-01-23T00:50:54;16.30;;;8.80;;
75216;SDS011;63800;51.972;5.682;2023-01-23T00:53:20;17.35;;;9.30;;
75216;SDS011;63800;51.972;5.682;2023-01-23T00:55:46;17.75;;;9.52;;
75216;SDS011;63800;51.972;5.682;2023-01-23T00:58:11;17.25;;;8.90;;
75216;SDS011;63800;51.972;5.682;2023-01-23T01:00:37;19.70;;;8.95;;
75216;SDS011;63800;51.972;5.682;2023-01-23T01:03:04;16.33;;;8.57;;
75216;SDS011;63800;51.972;5.682;2023-01-23T01:05:30;19.52;;;8.80;;
75216;SDS011;63800;51.972;5.682;2023-01-23T01:07:55;17.60;;;9.40;;
75216;SDS011;63800;51.972;5.682;2023-01-23T01:10:21;17.55;;;8.90;;
75216;SDS011;63800;51.972;5.682;2023-01-23T01:12:47;19.55;;;9.15;;
75216;SDS011;63800;51.972;5.682;2023-01-23T01:15:12;18.75;;;9.05;;
75216;SDS011;63800;51.972;5.682;2023-01-23T01:17:38;18.83;;;8.55;;
75216;SDS011;63800;51.972;5.682;2023-01-23T01:20:04;16.10;;;8.40;;
75216;SDS011;63800;51.972;5.682;2023-01-23T01:22:30;20.30;;;9.77;;
75216;SDS011;63800;51.972;5.682;2023-01-23T01:24:56;22.77;;;10.40;;
75216;SDS011;63800;51.972;5.682;2023-01-23T01:27:22;14.95;;;8.10;;
75216;SDS011;63800;51.972;5.682;2023-01-23T01:29:47;17.88;;;8.77;;
75216;SDS011;63800;51.972;5.682;2023-01-23T01:32:13;17.25;;;9.35;;
75216;SDS011;63800;51.972;5.682;2023-01-23T01:34:38;17.58;;;8.95;;
75216;SDS011;63800;51.972;5.682;2023-01-23T01:37:04;20.23;;;9.57;;
75216;SDS011;63800;51.972;5.682;2023-01-23T01:39:30;20.58;;;9.55;;
75216;SDS011;63800;51.972;5.682;2023-01-23T01:41:55;18.58;;;9.13;;
75216;SDS011;63800;51.972;5.682;2023-01-23T01:44:21;17.30;;;8.75;;
75216;SDS011;63800;51.972;5.682;2023-01-23T01:46:48;16.98;;;8.95;;
75216;SDS011;63800;51.972;5.682;2023-01-23T01:49:15;19.80;;;9.45;;
75216;SDS011;63800;51.972;5.682;2023-01-23T01:52:02;15.60;;;8.82;;
75216;SDS011;63800;51.972;5.682;2023-01-23T01:59:32;21.80;;;9.75;;
75216;SDS011;63800;51.972;5.682;2023-01-23T02:02:44;19.42;;;9.25;;
75216;SDS011;63800;51.972;5.682;2023-01-23T02:04:57;17.65;;;9.60;;
75216;SDS011;63800;51.972;5.682;2023-01-23T02:07:36;19.65;;;9.85;;
75216;SDS011;63800;51.972;5.682;2023-01-23T02:10:23;22.10;;;10.02;;
75216;SDS011;63800;51.972;5.682;2023-01-23T02:12:50;21.65;;;10.25;;
75216;SDS011;63800;51.972;5.682;2023-01-23T02:15:17;22.35;;;11.07;;
75216;SDS011;63800;51.972;5.682;2023-01-23T02:17:44;22.58;;;10.60;;
75216;SDS011;63800;51.972;5.682;2023-01-23T02:20:14;19.65;;;10.45;;
75216;SDS011;63800;51.972;5.682;2023-01-23T02:28:00;21.83;;;10.15;;
75216;SDS011;63800;51.972;5.682;2023-01-23T02:30:26;26.63;;;11.88;;
75216;SDS011;63800;51.972;5.682;2023-01-23T02:32:52;23.20;;;10.68;;
75216;SDS011;63800;51.972;5.682;2023-01-23T02:35:22;21.65;;;10.40;;
75216;SDS011;63800;51.972;5.682;2023-01-23T02:37:53;22.52;;;9.68;;
75216;SDS011;63800;51.972;5.682;2023-01-23T02:40:28;23.73;;;9.95;;
75216;SDS011;63800;51.972;5.682;2023-01-23T02:42:55;22.52;;;10.35;;
75216;SDS011;63800;51.972;5.682;2023-01-23T02:45:22;22.35;;;10.27;;
75216;SDS011;63800;51.972;5.682;2023-01-23T02:47:48;28.55;;;11.25;;
75216;SDS011;63800;51.972;5.682;2023-01-23T02:50:14;21.95;;;10.68;;
75216;SDS011;63800;51.972;5.682;2023-01-23T02:52:40;21.70;;;10.95;;
75216;SDS011;63800;51.972;5.682;2023-01-23T02:55:06;24.85;;;10.88;;
75216;SDS011;63800;51.972;5.682;2023-01-23T02:57:32;24.23;;;10.57;;
75216;SDS011;63800;51.972;5.682;2023-01-23T02:59:57;22.55;;;11.10;;
75216;SDS011;63800;51.972;5.682;2023-01-23T03:02:41;23.27;;;11.00;;
75216;SDS011;63800;51.972;5.682;2023-01-23T03:05:07;24.17;;;10.85;;
75216;SDS011;63800;51.972;5.682;2023-01-23T03:07:33;22.02;;;11.32;;
75216;SDS011;63800;51.972;5.682;2023-01-23T03:10:00;23.85;;;10.60;;
75216;SDS011;63800;51.972;5.682;2023-01-23T03:12:25;20.92;;;10.88;;
75216;SDS011;63800;51.972;5.682;2023-01-23T03:14:51;22.30;;;10.32;;
75216;SDS011;63800;51.972;5.682;2023-01-23T03:17:19;22.90;;;10.80;;
75216;SDS011;63800;51.972;5.682;2023-01-23T03:19:45;25.27;;;10.73;;
75216;SDS011;63800;51.972;5.682;2023-01-23T03:22:11;23.90;;;11.32;;
75216;SDS011;63800;51.972;5.682;2023-01-23T03:24:36;19.13;;;10.02;;
75216;SDS011;63800;51.972;5.682;2023-01-23T03:27:03;22.38;;;10.63;;
75216;SDS011;63800;51.972;5.682;2023-01-23T03:29:28;27.20;;;11.50;;
75216;SDS011;63800;51.972;5.682;2023-01-23T03:32:13;24.95;;;11.60;;
75216;SDS011;63800;51.972;5.682;2023-01-23T03:34:39;21.98;;;10.60;;
75216;SDS011;63800;51.972;5.682;2023-01-23T03:37:05;24.13;;;10.77;;
75216;SDS011;63800;51.972;5.682;2023-01-23T03:39:34;22.58;;;11.30;;
75216;SDS011;63800;51.972;5.682;2023-01-23T03:42:18;24.50;;;11.07;;
75216;SDS011;63800;51.972;5.682;2023-01-23T03:44:44;21.83;;;10.90;;
75216;SDS011;63800;51.972;5.682;2023-01-23T03:47:10;23.13;;;10.80;;
75216;SDS011;63800;51.972;5.682;2023-01-23T03:49:35;29.63;;;11.13;;
75216;SDS011;63800;51.972;5.682;2023-01-23T03:52:01;23.50;;;10.85;;
75216;SDS011;63800;51.972;5.682;2023-01-23T03:54:27;19.13;;;10.27;;
75216;SDS011;63800;51.972;5.682;2023-01-23T03:56:52;23.83;;;11.05;;
75216;SDS011;63800;51.972;5.682;2023-01-23T03:59:18;23.95;;;11.75;;
75216;SDS011;63800;51.972;5.682;2023-01-23T04:01:44;25.75;;;12.15;;
75216;SDS011;63800;51.972;5.682;2023-01-23T04:04:11;30.67;;;12.27;;
75216;SDS011;63800;51.972;5.682;2023-01-23T04:06:37;19.63;;;10.63;;
75216;SDS011;63800;51.972;5.682;2023-01-23T04:09:02;22.25;;;11.13;;
75216;SDS011;63800;51.972;5.682;2023-01-23T04:11:28;21.42;;;10.65;;
75216;SDS011;63800;51.972;5.682;2023-01-23T04:13:53;20.70;;;10.43;;
75216;SDS011;63800;51.972;5.682;2023-01-23T04:16:19;31.25;;;12.32;;
75216;SDS011;63800;51.972;5.682;2023-01-23T04:18:51;28.05;;;12.52;;
75216;SDS011;63800;51.972;5.682;2023-01-23T04:21:18;27.60;;;11.80;;
75216;SDS011;63800;51.972;5.682;2023-01-23T04:23:44;23.65;;;11.68;;
75216;SDS011;63800;51.972;5.682;2023-01-23T04:26:10;27.52;;;11.20;;
75216;SDS011;63800;51.972;5.682;2023-01-23T04:28:35;24.77;;;11.38;;
75216;SDS011;63800;51.972;5.682;2023-01-23T04:31:01;22.45;;;11.20;;
75216;SDS011;63800;51.972;5.682;2023-01-23T04:33:26;26.27;;;11.63;;
75216;SDS011;63800;51.972;5.682;2023-01-23T04:35:53;25.98;;;11.80;;
75216;SDS011;63800;51.972;5.682;2023-01-23T04:38:21;27.23;;;12.32;;
75216;SDS011;63800;51.972;5.682;2023-01-23T04:40:48;24.15;;;11.02;;
75216;SDS011;63800;51.972;5.682;2023-01-23T04:43:14;26.85;;;11.75;;
75216;SDS011;63800;51.972;5.682;2023-01-23T04:45:40;24.50;;;11.00;;
75216;SDS011;63800;51.972;5.682;2023-01-23T04:48:05;25.50;;;11.45;;
75216;SDS011;63800;51.972;5.682;2023-01-23T04:50:31;28.88;;;12.05;;
75216;SDS011;63800;51.972;5.682;2023-01-23T04:52:57;30.00;;;12.48;;
75216;SDS011;63800;51.972;5.682;2023-01-23T04:55:22;25.52;;;11.82;;
75216;SDS011;63800;51.972;5.682;2023-01-23T04:57:48;26.67;;;13.13;;
75216;SDS011;63800;51.972;5.682;2023-01-23T05:00:15;24.17;;;12.40;;
75216;SDS011;63800;51.972;5.682;2023-01-23T05:02:41;21.80;;;11.10;;
75216;SDS011;63800;51.972;5.682;2023-01-23T05:05:06;25.27;;;12.60;;
75216;SDS011;63800;51.972;5.682;2023-01-23T05:07:32;24.80;;;11.43;;
75216;SDS011;63800;51.972;5.682;2023-01-23T05:09:58;22.50;;;11.05;;
75216;SDS011;63800;51.972;5.682;2023-01-23T05:12:23;23.88;;;11.18;;
75216;SDS011;63800;51.972;5.682;2023-01-23T05:14:48;24.27;;;12.27;;
75216;SDS011;63800;51.972;5.682;2023-01-23T05:17:14;24.95;;;12.00;;
75216;SDS011;63800;51.972;5.682;2023-01-23T05:19:39;24.45;;;12.60;;
75216;SDS011;63800;51.972;5.682;2023-01-23T05:22:05;20.85;;;11.32;;
75216;SDS011;63800;51.972;5.682;2023-01-23T05:24:30;26.63;;;11.65;;
75216;SDS011;63800;51.972;5.682;2023-01-23T05:26:55;22.85;;;11.95;;
75216;SDS011;63800;51.972;5.682;2023-01-23T05:29:21;21.25;;;11.57;;
75216;SDS011;63800;51.972;5.682;2023-01-23T05:31:46;24.73;;;12.00;;
75216;SDS011;63800;51.972;5.682;2023-01-23T05:34:12;24.70;;;11.57;;
75216;SDS011;63800;51.972;5.682;2023-01-23T05:36:37;25.45;;;11.77;;
75216;SDS011;63800;51.972;5.682;2023-01-23T05:39:02;24.65;;;11.95;;
75216;SDS011;63800;51.972;5.682;2023-01-23T05:41:28;25.88;;;12.70;;
75216;SDS011;63800;51.972;5.682;2023-01-23T05:43:53;23.38;;;12.13;;
75216;SDS011;63800;51.972;5.682;2023-01-23T05:46:19;28.88;;;12.27;;
75216;SDS011;63800;51.972;5.682;2023-01-23T05:48:47;24.98;;;12.52;;
75216;SDS011;63800;51.972;5.682;2023-01-23T05:51:14;23.73;;;11.63;;
75216;SDS011;63800;51.972;5.682;2023-01-23T05:53:39;25.60;;;12.55;;
75216;SDS011;63800;51.972;5.682;2023-01-23T05:56:06;24.10;;;11.23;;
75216;SDS011;63800;51.972;5.682;2023-01-23T05:58:31;22.95;;;11.55;;
75216;SDS011;63800;51.972;5.682;2023-01-23T06:00:57;24.27;;;11.63;;
75216;SDS011;63800;51.972;5.682;2023-01-23T06:03:22;27.60;;;13.05;;
75216;SDS011;63800;51.972;5.682;2023-01-23T06:05:48;21.85;;;10.68;;
75216;SDS011;63800;51.972;5.682;2023-01-23T06:08:13;24.30;;;11.85;;
75216;SDS011;63800;51.972;5.682;2023-01-23T06:10:39;23.52;;;12.25;;
75216;SDS011;63800;51.972;5.682;2023-01-23T06:13:04;27.48;;;12.00;;
75216;SDS011;63800;51.972;5.682;2023-01-23T06:15:30;24.50;;;11.80;;
75216;SDS011;63800;51.972;5.682;2023-01-23T06:17:55;23.30;;;11.75;;
75216;SDS011;63800;51.972;5.682;2023-01-23T06:20:24;26.65;;;11.82;;
75216;SDS011;63800;51.972;5.682;2023-01-23T06:22:49;24.55;;;12.68;;
75216;SDS011;63800;51.972;5.682;2023-01-23T06:25:15;26.95;;;12.70;;
75216;SDS011;63800;51.972;5.682;2023-01-23T06:27:42;28.45;;;13.30;;
75216;SDS011;63800;51.972;5.682;2023-01-23T06:30:07;23.48;;;11.60;;
75216;SDS011;63800;51.972;5.682;2023-01-23T06:32:34;21.60;;;11.02;;
75216;SDS011;63800;51.972;5.682;2023-01-23T06:34:59;25.60;;;12.48;;
75216;SDS011;63800;51.972;5.682;2023-01-23T06:37:26;23.35;;;11.52;;
75216;SDS011;63800;51.972;5.682;2023-01-23T06:39:51;22.48;;;12.05;;
75216;SDS011;63800;51.972;5.682;2023-01-23T06:42:17;22.55;;;11.45;;
75216;SDS011;63800;51.972;5.682;2023-01-23T06:44:42;25.50;;;11.93;;
75216;SDS011;63800;51.972;5.682;2023-01-23T06:47:07;24.98;;;13.18;;
75216;SDS011;63800;51.972;5.682;2023-01-23T06:49:33;24.92;;;11.63;;
75216;SDS011;63800;51.972;5.682;2023-01-23T06:51:58;25.85;;;12.88;;
75216;SDS011;63800;51.972;5.682;2023-01-23T06:54:24;23.05;;;12.02;;
75216;SDS011;63800;51.972;5.682;2023-01-23T06:56:49;26.77;;;13.57;;
75216;SDS011;63800;51.972;5.682;2023-01-23T06:59:15;25.33;;;13.30;;
75216;SDS011;63800;51.972;5.682;2023-01-23T07:01:41;25.05;;;12.48;;
75216;SDS011;63800;51.972;5.682;2023-01-23T07:04:06;23.02;;;12.30;;
75216;SDS011;63800;51.972;5.682;2023-01-23T07:06:33;24.45;;;12.10;;
75216;SDS011;63800;51.972;5.682;2023-01-23T07:08:58;21.60;;;11.70;;
75216;SDS011;63800;51.972;5.682;2023-01-23T07:11:24;23.45;;;12.63;;
75216;SDS011;63800;51.972;5.682;2023-01-23T07:13:49;27.70;;;13.68;;
75216;SDS011;63800;51.972;5.682;2023-01-23T07:16:15;26.80;;;12.65;;
75216;SDS011;63800;51.972;5.682;2023-01-23T07:18:40;22.55;;;12.35;;
75216;SDS011;63800;51.972;5.682;2023-01-23T07:21:06;23.63;;;11.55;;
75216;SDS011;63800;51.972;5.682;2023-01-23T07:23:32;25.67;;;12.30;;
75216;SDS011;63800;51.972;5.682;2023-01-23T07:25:59;23.23;;;12.30;;
75216;SDS011;63800;51.972;5.682;2023-01-23T07:28:25;25.65;;;12.80;;
75216;SDS011;63800;51.972;5.682;2023-01-23T07:30:51;24.33;;;11.50;;
75216;SDS011;63800;51.972;5.682;2023-01-23T07:33:17;24.85;;;13.18;;
75216;SDS011;63800;51.972;5.682;2023-01-23T07:35:42;26.80;;;12.38;;
75216;SDS011;63800;51.972;5.682;2023-01-23T07:38:08;23.65;;;12.70;;
75216;SDS011;63800;51.972;5.682;2023-01-23T07:40:33;28.77;;;14.10;;
75216;SDS011;63800;51.972;5.682;2023-01-23T07:43:02;25.52;;;12.55;;
75216;SDS011;63800;51.972;5.682;2023-01-23T07:45:29;28.10;;;13.75;;
75216;SDS011;63800;51.972;5.682;2023-01-23T07:47:54;24.85;;;12.95;;
75216;SDS011;63800;51.972;5.682;2023-01-23T07:50:20;27.42;;;13.15;;
75216;SDS011;63800;51.972;5.682;2023-01-23T07:52:45;24.02;;;12.80;;
75216;SDS011;63800;51.972;5.682;2023-01-23T07:55:11;28.20;;;12.52;;
75216;SDS011;63800;51.972;5.682;2023-01-23T07:57:36;27.17;;;12.82;;
75216;SDS011;63800;51.972;5.682;2023-01-23T08:00:02;23.98;;;12.80;;
75216;SDS011;63800;51.972;5.682;2023-01-23T08:02:28;23.65;;;12.52;;
75216;SDS011;63800;51.972;5.682;2023-01-23T08:04:54;25.67;;;13.77;;
75216;SDS011;63800;51.972;5.682;2023-01-23T08:07:19;23.27;;;12.23;;
75216;SDS011;63800;51.972;5.682;2023-01-23T08:09:45;24.70;;;12.18;;
75216;SDS011;63800;51.972;5.682;2023-01-23T08:12:10;24.58;;;12.50;;
75216;SDS011;63800;51.972;5.682;2023-01-23T08:14:36;26.10;;;12.77;;
75216;SDS011;63800;51.972;5.682;2023-01-23T08:17:02;25.48;;;12.93;;
75216;SDS011;63800;51.972;5.682;2023-01-23T08:19:27;23.90;;;13.15;;
75216;SDS011;63800;51.972;5.682;2023-01-23T08:21:53;24.50;;;12.82;;
75216;SDS011;63800;51.972;5.682;2023-01-23T08:24:18;24.70;;;11.77;;
75216;SDS011;63800;51.972;5.682;2023-01-23T08:26:45;24.88;;;13.13;;
75216;SDS011;63800;51.972;5.682;2023-01-23T08:29:10;23.88;;;13.27;;
75216;SDS011;63800;51.972;5.682;2023-01-23T08:31:36;23.38;;;12.20;;
75216;SDS011;63800;51.972;5.682;2023-01-23T08:34:02;26.17;;;12.25;;
75216;SDS011;63800;51.972;5.682;2023-01-23T08:36:27;24.10;;;12.18;;
75216;SDS011;63800;51.972;5.682;2023-01-23T08:38:53;23.40;;;11.55;;
75216;SDS011;63800;51.972;5.682;2023-01-23T08:41:19;25.20;;;12.48;;
75216;SDS011;63800;51.972;5.682;2023-01-23T08:43:45;24.92;;;12.95;;
75216;SDS011;63800;51.972;5.682;2023-01-23T08:46:10;23.33;;;12.25;;
75216;SDS011;63800;51.972;5.682;2023-01-23T08:48:36;23.77;;;12.45;;
75216;SDS011;63800;51.972;5.682;2023-01-23T08:51:06;23.98;;;12.02;;
75216;SDS011;63800;51.972;5.682;2023-01-23T08:53:33;24.45;;;12.40;;
75216;SDS011;63800;51.972;5.682;2023-01-23T08:56:00;21.00;;;12.52;;
75216;SDS011;63800;51.972;5.682;2023-01-23T08:58:30;23.88;;;11.57;;
75216;SDS011;63800;51.972;5.682;2023-01-23T09:00:56;23.50;;;12.05;;
75216;SDS011;63800;51.972;5.682;2023-01-23T09:03:22;23.42;;;12.18;;
75216;SDS011;63800;51.972;5.682;2023-01-23T09:05:47;27.48;;;12.80;;
75216;SDS011;63800;51.972;5.682;2023-01-23T09:08:13;22.67;;;12.07;;
75216;SDS011;63800;51.972;5.682;2023-01-23T09:10:39;20.58;;;11.88;;
75216;SDS011;63800;51.972;5.682;2023-01-23T09:13:04;20.95;;;12.07;;
75216;SDS011;63800;51.972;5.682;2023-01-23T09:15:30;22.75;;;12.02;;
75216;SDS011;63800;51.972;5.682;2023-01-23T09:17:56;22.92;;;12.23;;
75216;SDS011;63800;51.972;5.682;2023-01-23T09:20:22;22.83;;;11.57;;
75216;SDS011;63800;51.972;5.682;2023-01-23T09:22:50;24.20;;;11.52;;
75216;SDS011;63800;51.972;5.682;2023-01-23T09:25:16;23.23;;;11.82;;
75216;SDS011;63800;51.972;5.682;2023-01-23T09:27:42;22.70;;;11.93;;
75216;SDS011;63800;51.972;5.682;2023-01-23T09:30:08;25.15;;;12.57;;
75216;SDS011;63800;51.972;5.682;2023-01-23T09:32:34;22.08;;;11.60;;
75216;SDS011;63800;51.972;5.682;2023-01-23T09:34:59;22.40;;;11.13;;
75216;SDS011;63800;51.972;5.682;2023-01-23T09:37:26;19.25;;;11.25;;
75216;SDS011;63800;51.972;5.682;2023-01-23T09:39:53;23.38;;;11.23;;
75216;SDS011;63800;51.972;5.682;2023-01-23T09:42:26;21.00;;;11.80;;
75216;SDS011;63800;51.972;5.682;2023-01-23T09:44:59;24.73;;;12.00;;
75216;SDS011;63800;51.972;5.682;2023-01-23T09:47:35;26.38;;;12.40;;
75216;SDS011;63800;51.972;5.682;2023-01-23T09:50:06;22.75;;;11.23;;
75216;SDS011;63800;51.972;5.682;2023-01-23T09:52:40;22.73;;;11.68;;
75216;SDS011;63800;51.972;5.682;2023-01-23T09:55:15;22.95;;;11.57;;
75216;SDS011;63800;51.972;5.682;2023-01-23T09:57:47;21.02;;;12.10;;
75216;SDS011;63800;51.972;5.682;2023-01-23T10:02:46;23.10;;;11.52;;
75216;SDS011;63800;51.972;5.682;2023-01-23T10:05:12;24.02;;;11.80;;
75216;SDS011;63800;51.972;5.682;2023-01-23T10:16:14;19.40;;;10.85;;
75216;SDS011;63800;51.972;5.682;2023-01-23T10:19:31;19.63;;;11.05;;
75216;SDS011;63800;51.972;5.682;2023-01-23T10:22:28;20.27;;;10.98;;
75216;SDS011;63800;51.972;5.682;2023-01-23T10:24:59;22.55;;;11.27;;
75216;SDS011;63800;51.972;5.682;2023-01-23T10:29:58;20.77;;;10.73;;
75216;SDS011;63800;51.972;5.682;2023-01-23T10:32:28;21.55;;;10.70;;
75216;SDS011;63800;51.972;5.682;2023-01-23T10:35:04;21.50;;;11.02;;
75216;SDS011;63800;51.972;5.682;2023-01-23T10:40:19;20.65;;;10.98;;
75216;SDS011;63800;51.972;5.682;2023-01-23T10:43:10;23.73;;;12.10;;
75216;SDS011;63800;51.972;5.682;2023-01-23T10:45:41;22.67;;;11.77;;
75216;SDS011;63800;51.972;5.682;2023-01-23T10:50:56;22.02;;;11.98;;
75216;SDS011;63800;51.972;5.682;2023-01-23T10:53:22;19.88;;;10.15;;
75216;SDS011;63800;51.972;5.682;2023-01-23T10:55:49;20.20;;;11.63;;
75216;SDS011;63800;51.972;5.682;2023-01-23T11:01:02;17.98;;;9.68;;
75216;SDS011;63800;51.972;5.682;2023-01-23T11:03:30;21.65;;;10.88;;
75216;SDS011;63800;51.972;5.682;2023-01-23T11:06:06;20.48;;;11.05;;
75216;SDS011;63800;51.972;5.682;2023-01-23T11:08:41;18.65;;;10.70;;
75216;SDS011;63800;51.972;5.682;2023-01-23T11:16:27;16.23;;;9.13;;
75216;SDS011;63800;51.972;5.682;2023-01-23T11:19:03;20.27;;;10.85;;
75216;SDS011;63800;51.972;5.682;2023-01-23T11:21:55;20.27;;;11.13;;
75216;SDS011;63800;51.972;5.682;2023-01-23T11:24:35;17.98;;;10.00;;
75216;SDS011;63800;51.972;5.682;2023-01-23T11:27:03;18.17;;;10.68;;
75216;SDS011;63800;51.972;5.682;2023-01-23T11:29:57;18.98;;;10.70;;
75216;SDS011;63800;51.972;5.682;2023-01-23T11:33:32;22.08;;;10.90;;
75216;SDS011;63800;51.972;5.682;2023-01-23T11:35:44;21.30;;;10.77;;
75216;SDS011;63800;51.972;5.682;2023-01-23T11:38:15;21.70;;;10.60;;
75216;SDS011;63800;51.972;5.682;2023-01-23T11:40:43;19.10;;;10.20;;
75216;SDS011;63800;51.972;5.682;2023-01-23T11:43:15;21.05;;;10.70;;
75216;SDS011;63800;51.972;5.682;2023-01-23T11:59:30;19.13;;;10.38;;
75216;SDS011;63800;51.972;5.682;2023-01-23T12:05:21;16.67;;;9.68;;
75216;SDS011;63800;51.972;5.682;2023-01-23T12:15:42;18.65;;;10.50;;
75216;SDS011;63800;51.972;5.682;2023-01-23T12:20:59;19.05;;;10.07;;
75216;SDS011;63800;51.972;5.682;2023-01-23T12:23:35;16.13;;;9.80;;
75216;SDS011;63800;51.972;5.682;2023-01-23T12:26:25;17.17;;;9.93;;
75216;SDS011;63800;51.972;5.682;2023-01-23T12:37:49;17.67;;;9.95;;
75216;SDS011;63800;51.972;5.682;2023-01-23T12:40:30;16.08;;;9.30;;
75216;SDS011;63800;51.972;5.682;2023-01-23T12:46:04;15.93;;;9.43;;
75216;SDS011;63800;51.972;5.682;2023-01-23T12:49:09;17.27;;;9.38;;
75216;SDS011;63800;51.972;5.682;2023-01-23T12:51:45;16.40;;;9.43;;
75216;SDS011;63800;51.972;5.682;2023-01-23T12:54:16;17.08;;;9.80;;
75216;SDS011;63800;51.972;5.682;2023-01-23T12:56:49;17.33;;;9.43;;
75216;SDS011;63800;51.972;5.682;2023-01-23T12:59:38;17.10;;;9.30;;
75216;SDS011;63800;51.972;5.682;2023-01-23T13:02:17;17.20;;;9.30;;
75216;SDS011;63800;51.972;5.682;2023-01-23T13:04:59;15.38;;;8.80;;
75216;SDS011;63800;51.972;5.682;2023-01-23T13:13:15;15.48;;;9.60;;
75216;SDS011;63800;51.972;5.682;2023-01-23T13:15:42;17.88;;;9.82;;
75216;SDS011;63800;51.972;5.682;2023-01-23T13:18:29;16.83;;;9.48;;
75216;SDS011;63800;51.972;5.682;2023-01-23T13:21:14;18.40;;;9.60;;
75216;SDS011;63800;51.972;5.682;2023-01-23T13:24:12;17.27;;;9.60;;
75216;SDS011;63800;51.972;5.682;2023-01-23T13:32:51;17.60;;;10.13;;
75216;SDS011;63800;51.972;5.682;2023-01-23T13:52:24;16.15;;;8.98;;
75216;SDS011;63800;51.972;5.682;2023-01-23T13:58:05;17.33;;;9.73;;
75216;SDS011;63800;51.972;5.682;2023-01-23T14:00:33;17.85;;;9.25;;
75216;SDS011;63800;51.972;5.682;2023-01-23T14:06:07;17.77;;;9.15;;
75216;SDS011;63800;51.972;5.682;2023-01-23T14:08:44;17.30;;;9.18;;
75216;SDS011;63800;51.972;5.682;2023-01-23T14:11:14;16.65;;;8.95;;
75216;SDS011;63800;51.972;5.682;2023-01-23T14:13:51;17.92;;;9.45;;
75216;SDS011;63800;51.972;5.682;2023-01-23T14:16:42;15.77;;;9.25;;
75216;SDS011;63800;51.972;5.682;2023-01-23T14:19:24;15.38;;;9.18;;
75216;SDS011;63800;51.972;5.682;2023-01-23T14:21:55;15.07;;;8.73;;
75216;SDS011;63800;51.972;5.682;2023-01-23T14:27:34;16.90;;;9.07;;
75216;SDS011;63800;51.972;5.682;2023-01-23T14:30:03;17.90;;;9.05;;
75216;SDS011;63800;51.972;5.682;2023-01-23T14:32:39;15.77;;;8.90;;
75216;SDS011;63800;51.972;5.682;2023-01-23T14:37:49;17.38;;;9.00;;
75216;SDS011;63800;51.972;5.682;2023-01-23T14:40:16;15.93;;;8.40;;
75216;SDS011;63800;51.972;5.682;2023-01-23T14:42:43;18.27;;;9.70;;
75216;SDS011;63800;51.972;5.682;2023-01-23T14:45:12;14.60;;;8.40;;
75216;SDS011;63800;51.972;5.682;2023-01-23T14:47:42;15.93;;;8.27;;
75216;SDS011;63800;51.972;5.682;2023-01-23T14:50:14;18.77;;;9.15;;
75216;SDS011;63800;51.972;5.682;2023-01-23T14:52:56;20.13;;;9.45;;
75216;SDS011;63800;51.972;5.682;2023-01-23T14:55:36;19.85;;;9.50;;
75216;SDS011;63800;51.972;5.682;2023-01-23T14:58:05;19.60;;;10.13;;
75216;SDS011;63800;51.972;5.682;2023-01-23T15:00:31;17.38;;;9.43;;
75216;SDS011;63800;51.972;5.682;2023-01-23T15:02:59;17.98;;;9.55;;
75216;SDS011;63800;51.972;5.682;2023-01-23T15:05:28;18.70;;;10.52;;
75216;SDS011;63800;51.972;5.682;2023-01-23T15:10:35;17.98;;;9.50;;
75216;SDS011;63800;51.972;5.682;2023-01-23T15:13:18;18.33;;;10.00;;
75216;SDS011;63800;51.972;5.682;2023-01-23T15:15:48;18.52;;;9.48;;
75216;SDS011;63800;51.972;5.682;2023-01-23T15:18:21;17.38;;;8.70;;
75216;SDS011;63800;51.972;5.682;2023-01-23T15:21:49;18.17;;;10.05;;
75216;SDS011;63800;51.972;5.682;2023-01-23T15:24:02;15.32;;;8.35;;
75216;SDS011;63800;51.972;5.682;2023-01-23T15:26:34;17.20;;;8.70;;
75216;SDS011;63800;51.972;5.682;2023-01-23T15:29:22;16.60;;;9.48;;
75216;SDS011;63800;51.972;5.682;2023-01-23T15:31:48;17.23;;;9.07;;
75216;SDS011;63800;51.972;5.682;2023-01-23T15:41:49;20.42;;;9.25;;
75216;SDS011;63800;51.972;5.682;2023-01-23T15:44:18;17.15;;;9.32;;
75216;SDS011;63800;51.972;5.682;2023-01-23T15:46:45;17.45;;;9.27;;
75216;SDS011;63800;51.972;5.682;2023-01-23T15:49:11;17.65;;;9.68;;
75216;SDS011;63800;51.972;5.682;2023-01-23T15:51:36;18.35;;;9.57;;
75216;SDS011;63800;51.972;5.682;2023-01-23T15:54:03;17.88;;;9.10;;
75216;SDS011;63800;51.972;5.682;2023-01-23T15:56:29;18.77;;;9.18;;
75216;SDS011;63800;51.972;5.682;2023-01-23T15:58:57;16.30;;;9.18;;
75216;SDS011;63800;51.972;5.682;2023-01-23T16:01:24;18.20;;;9.40;;
75216;SDS011;63800;51.972;5.682;2023-01-23T16:03:50;16.50;;;9.85;;
75216;SDS011;63800;51.972;5.682;2023-01-23T16:06:17;19.13;;;9.82;;
75216;SDS011;63800;51.972;5.682;2023-01-23T16:08:45;19.20;;;9.73;;
75216;SDS011;63800;51.972;5.682;2023-01-23T16:11:15;16.20;;;9.80;;
75216;SDS011;63800;51.972;5.682;2023-01-23T16:13:41;17.90;;;10.25;;
75216;SDS011;63800;51.972;5.682;2023-01-23T16:16:13;18.90;;;10.10;;
75216;SDS011;63800;51.972;5.682;2023-01-23T16:18:40;16.63;;;9.15;;
75216;SDS011;63800;51.972;5.682;2023-01-23T16:21:06;16.30;;;9.27;;
75216;SDS011;63800;51.972;5.682;2023-01-23T16:23:37;17.92;;;9.50;;
75216;SDS011;63800;51.972;5.682;2023-01-23T16:26:02;17.45;;;9.10;;
75216;SDS011;63800;51.972;5.682;2023-01-23T16:28:28;15.38;;;9.25;;
75216;SDS011;63800;51.972;5.682;2023-01-23T16:30:54;16.50;;;9.63;;
75216;SDS011;63800;51.972;5.682;2023-01-23T16:33:20;16.35;;;9.50;;
75216;SDS011;63800;51.972;5.682;2023-01-23T16:35:46;16.42;;;9.70;;
75216;SDS011;63800;51.972;5.682;2023-01-23T16:38:20;16.73;;;8.55;;
75216;SDS011;63800;51.972;5.682;2023-01-23T16:40:48;18.73;;;9.63;;
75216;SDS011;63800;51.972;5.682;2023-01-23T16:43:16;17.23;;;10.00;;
75216;SDS011;63800;51.972;5.682;2023-01-23T16:45:42;15.18;;;8.80;;